Home > Products > Valid Products > TAF

000
FTUS42 KTAE 241100
TAFTLH
TAF
KTLH 241120Z 2412/2512 00000KT P6SM BKN200
     FM241500 05007KT P6SM FEW200
     FM250100 00000KT P6SM SKC=



000
FTUS42 KTAE 241100
TAFDHN
TAF
KDHN 241120Z 2412/2512 00000KT P6SM SCT200
     FM241500 02005KT P6SM SKC
     FM250100 34003KT P6SM SKC=



000
FTUS42 KTAE 241100
TAFABY
TAF
KABY 241120Z 2412/2512 00000KT P6SM BKN200
     FM241500 04005KT P6SM FEW200
     FM250000 00000KT P6SM SKC=



000
FTUS42 KTAE 241100
TAFVLD
TAF
KVLD 241120Z 2412/2512 00000KT P6SM BKN200
     FM241500 05007KT P6SM SCT200
     FM242300 00000KT P6SM SKC=



000
FTUS42 KTAE 240500
TAFTLH
TAF
KTLH 240520Z 2406/2506 00000KT P6SM BKN200
     FM241500 05007KT P6SM FEW200
     FM250100 00000KT P6SM SKC=



000
FTUS42 KTAE 240500
TAFABY
TAF
KABY 240520Z 2406/2506 00000KT P6SM OVC200
     FM241500 04005KT P6SM SCT200
     FM250000 00000KT P6SM SKC=



000
FTUS42 KTAE 240500
TAFVLD
TAF
KVLD 240520Z 2406/2506 00000KT P6SM BKN200
     FM241500 05007KT P6SM SCT200
     FM242300 00000KT P6SM SKC=



000
FTUS42 KTAE 240500
TAFDHN
TAF
KDHN 240520Z 2406/2506 00000KT P6SM OVC200
     FM241500 02005KT P6SM SKC
     FM250100 34003KT P6SM SKC=



000
FTUS42 KTAE 232300
TAFABY
TAF
KABY 232320Z 2400/2424 00000KT P6SM BKN250
     FM241500 05004KT P6SM SCT250=



000
FTUS42 KTAE 232300
TAFTLH
TAF
KTLH 232320Z 2400/2424 34004KT P6SM FEW250
     FM240300 00000KT P6SM BKN250
     FM241600 03005KT P6SM SCT250=



000
FTUS42 KTAE 232300
TAFDHN
TAF
KDHN 232320Z 2400/2424 01003KT P6SM BKN250
     FM241600 03006KT P6SM SCT250=



000
FTUS42 KTAE 232300
TAFVLD
TAF
KVLD 232320Z 2400/2424 00000KT P6SM SCT250
     FM241500 05005KT P6SM BKN250=



000
FTUS42 KTAE 231700
TAFTLH
TAF
KTLH 231720Z 2318/2418 06008KT P6SM SKC
     FM240000 00000KT P6SM SKC=



000
FTUS42 KTAE 231700
TAFABY
TAF
KABY 231720Z 2318/2418 VRB03KT P6SM SKC
     FM240000 00000KT P6SM SKC=



000
FTUS42 KTAE 231700
TAFVLD
TAF
KVLD 231720Z 2318/2418 04006KT P6SM SKC
     FM240000 00000KT P6SM SKC=



000
FTUS42 KTAE 231700
TAFDHN
TAF
KDHN 231720Z 2318/2418 VRB05KT P6SM FEW250=



000
FTUS42 KTAE 231100
TAFDHN
TAF
KDHN 231120Z 2312/2412 06007KT P6SM SKC=



000
FTUS42 KTAE 231100
TAFABY
TAF
KABY 231120Z 2312/2412 04005KT P6SM SKC=



000
FTUS42 KTAE 231100
TAFTLH
TAF
KTLH 231120Z 2312/2412 05006KT P6SM SKC=



000
FTUS42 KTAE 231100
TAFVLD
TAF
KVLD 231120Z 2312/2412 04007KT P6SM SKC=



000
FTUS42 KTAE 230500 RRA
TAFDHN
TAF
KDHN 230545Z 2306/2406 02004KT P6SM SKC
     FM231600 06007KT P6SM SKC=



000
FTUS42 KTAE 230500 RRA
TAFVLD
TAF
KVLD 230545Z 2306/2406 00000KT P6SM SKC
     FM231500 06007KT P6SM SKC=



000
FTUS42 KTAE 230500 RRA
TAFTLH
TAF
KTLH 230545Z 2306/2406 01002KT P6SM SKC
     FM231600 07007KT P6SM FEW250=



000
FTUS42 KTAE 230500 RRA
TAFABY
TAF
KABY 230545Z 2306/2406 00000KT P6SM SKC
     FM231500 04006KT P6SM SKC=



000
FTUS42 KTAE 222300
TAFABY
TAF
KABY 222320Z 2300/2324 01007KT P6SM SKC
     FM230300 00000KT P6SM SKC
     FM231500 04006KT P6SM SKC=



000
FTUS42 KTAE 222300
TAFVLD
TAF
KVLD 222320Z 2300/2324 02006KT P6SM SKC
     FM230200 00000KT P6SM SKC
     FM231500 06007KT P6SM SKC=



000
FTUS42 KTAE 222300
TAFTLH
TAF
KTLH 222320Z 2300/2324 36009KT P6SM SKC
     FM230200 01002KT P6SM SKC
     FM231600 07006KT P6SM FEW250=



000
FTUS42 KTAE 222300
TAFDHN
TAF
KDHN 222320Z 2300/2324 01007KT P6SM SKC
     FM230300 02004KT P6SM SKC
     FM231600 06007KT P6SM SKC=



000
FTUS42 KTAE 221700
TAFABY
TAF
KABY 221720Z 2218/2318 01007KT P6SM SKC
     FM230000 00000KT P6SM SKC=



000
FTUS42 KTAE 221700
TAFTLH
TAF
KTLH 221720Z 2218/2318 36009KT P6SM SKC
     FM230000 00000KT P6SM SKC=



000
FTUS42 KTAE 221700
TAFDHN
TAF
KDHN 221720Z 2218/2318 01007KT P6SM SKC
     FM230100 05002KT P6SM SKC=



000
FTUS42 KTAE 221700
TAFVLD
TAF
KVLD 221720Z 2218/2318 02006KT P6SM SKC
     FM230000 00000KT P6SM SKC=



000
FTUS42 KTAE 221700
TAFDHN
TAF
KDHN 221720Z 2218/2318 01007KT P6SM SKC
     FM230100 05002KT P6SM SKC=



000
FTUS42 KTAE 221700
TAFTLH
TAF
KTLH 221720Z 2218/2318 36009KT P6SM SKC
     FM230000 00000KT P6SM SKC=



000
FTUS42 KTAE 221700
TAFABY
TAF
KABY 221720Z 2218/2318 01007KT P6SM SKC
     FM230000 00000KT P6SM SKC=



000
FTUS42 KTAE 221700
TAFVLD
TAF
KVLD 221720Z 2218/2318 02006KT P6SM SKC
     FM230000 00000KT P6SM SKC=



000
FTUS42 KTAE 221100
TAFTLH
TAF
KTLH 221123Z 2212/2312 00000KT P6SM SKC
     FM221400 02007KT P6SM SKC=



000
FTUS42 KTAE 221100
TAFDHN
TAF
KDHN 221123Z 2212/2312 32003KT P6SM SKC
     FM221500 02009KT P6SM SKC=



000
FTUS42 KTAE 221100
TAFVLD
TAF
KVLD 221123Z 2212/2312 00000KT P6SM SKC
     FM221500 02006KT P6SM SKC=



000
FTUS42 KTAE 221100
TAFABY
TAF
KABY 221123Z 2212/2312 00000KT P6SM SKC
     FM221500 01007KT P6SM SKC=



000
FTUS42 KTAE 220700 AAA
TAFTLH
TAF AMD
KTLH 220729Z 2207/2306 00000KT P6SM SKC
     FM221400 02007KT P6SM SKC=



000
FTUS42 KTAE 220500
TAFVLD
TAF
KVLD 220539Z 2206/2306 00000KT P6SM SKC
     FM221500 02006KT P6SM SKC=



000
FTUS42 KTAE 220500
TAFDHN
TAF
KDHN 220539Z 2206/2306 32003KT P6SM SKC
     FM221500 02009KT P6SM SKC=



000
FTUS42 KTAE 220500
TAFTLH
TAF
KTLH 220539Z 2206/2306 00000KT P6SM SKC
     FM221400 02007KT P6SM SKC
      AMD NOT SKED TIL 221000=



000
FTUS42 KTAE 220500
TAFABY
TAF
KABY 220539Z 2206/2306 00000KT P6SM SKC
     FM221500 01007KT P6SM SKC=



000
FTUS42 KTAE 220500
TAFTLH
TAF
KTLH 220539Z 2206/2306 00000KT P6SM SKC
     FM221400 02007KT P6SM SKC
      AMD NOT SKED TIL 221000=



000
FTUS42 KTAE 220500
TAFABY
TAF
KABY 220539Z 2206/2306 00000KT P6SM SKC
     FM221500 01007KT P6SM SKC=



000
FTUS42 KTAE 220500
TAFVLD
TAF
KVLD 220539Z 2206/2306 00000KT P6SM SKC
     FM221500 02006KT P6SM SKC=



000
FTUS42 KTAE 220500
TAFDHN
TAF
KDHN 220539Z 2206/2306 32003KT P6SM SKC
     FM221500 02009KT P6SM SKC=



000
FTUS42 KTAE 212300
TAFTLH
TAF
KTLH 212320Z 2200/2224 35006KT P6SM FEW250
     FM220200 00000KT P6SM SKC
     FM221400 02007KT P6SM SKC=



000
FTUS42 KTAE 212300
TAFTLH
TAF
KTLH 212320Z 2200/2224 35006KT P6SM FEW250
     FM220200 00000KT P6SM SKC
     FM221400 02007KT P6SM SKC=



000
FTUS42 KTAE 212300
TAFDHN
TAF
KDHN 212320Z 2200/2224 33004KT P6SM SKC
     FM221500 02010KT P6SM SKC=



000
FTUS42 KTAE 212300
TAFVLD
TAF
KVLD 212320Z 2200/2224 00000KT P6SM SKC
     FM221500 02007KT P6SM SKC=



000
FTUS42 KTAE 212300
TAFDHN
TAF
KDHN 212320Z 2200/2224 33004KT P6SM SKC
     FM221500 02010KT P6SM SKC=



000
FTUS42 KTAE 212300
TAFABY
TAF
KABY 212320Z 2200/2224 30003KT P6SM SKC
     FM220200 00000KT P6SM SKC
     FM221500 01008KT P6SM SKC=



000
FTUS42 KTAE 212300
TAFVLD
TAF
KVLD 212320Z 2200/2224 00000KT P6SM SKC
     FM221500 02007KT P6SM SKC=



000
FTUS42 KTAE 212300
TAFABY
TAF
KABY 212320Z 2200/2224 30003KT P6SM SKC
     FM220200 00000KT P6SM SKC
     FM221500 01008KT P6SM SKC=



000
FTUS42 KTAE 211700
TAFTLH
TAF
KTLH 211720Z 2118/2218 36007KT P6SM SKC
     FM220000 00000KT P6SM SKC=



000
FTUS42 KTAE 211700
TAFDHN
TAF
KDHN 211720Z 2118/2218 36007KT P6SM SKC
     FM220000 00000KT P6SM SKC=



000
FTUS42 KTAE 211700
TAFABY
TAF
KABY 211720Z 2118/2218 32006KT P6SM SKC
     FM220000 00000KT P6SM SKC=



000
FTUS42 KTAE 211700
TAFVLD
TAF
KVLD 211720Z 2118/2218 00000KT P6SM SKC=



    US Dept of Commerce
    National Oceanic and Atmospheric Administration
    National Weather Service
    1325 East West Highway
    Silver Spring, MD 20910
    Page Author: NWS Internet Services Team
Disclaimer
Information Quality
Credits
Glossary
Privacy Policy
Freedom of Information Act (FOIA)
About Us
Career Opportunities